sensor_id;sensor_type;location;lat;lon;timestamp;P1;durP1;ratioP1;P2;durP2;ratioP2
29402;SDS011;16382;59.942;30.472;2022-12-16T00:02:17;20.67;;;11.32;;
29402;SDS011;16382;59.942;30.472;2022-12-16T00:04:44;22.13;;;11.68;;
29402;SDS011;16382;59.942;30.472;2022-12-16T00:07:12;21.85;;;11.95;;
29402;SDS011;16382;59.942;30.472;2022-12-16T00:09:41;27.63;;;10.73;;
29402;SDS011;16382;59.942;30.472;2022-12-16T00:12:08;27.65;;;12.57;;
29402;SDS011;16382;59.942;30.472;2022-12-16T00:14:35;33.90;;;11.35;;
29402;SDS011;16382;59.942;30.472;2022-12-16T00:17:03;25.55;;;10.98;;
29402;SDS011;16382;59.942;30.472;2022-12-16T00:19:31;21.50;;;11.65;;
29402;SDS011;16382;59.942;30.472;2022-12-16T00:21:58;20.20;;;11.77;;
29402;SDS011;16382;59.942;30.472;2022-12-16T00:24:26;16.90;;;9.43;;
29402;SDS011;16382;59.942;30.472;2022-12-16T00:26:57;23.50;;;11.57;;
29402;SDS011;16382;59.942;30.472;2022-12-16T00:29:25;24.30;;;12.27;;
29402;SDS011;16382;59.942;30.472;2022-12-16T00:31:52;21.67;;;11.60;;
29402;SDS011;16382;59.942;30.472;2022-12-16T00:34:20;19.50;;;11.48;;
29402;SDS011;16382;59.942;30.472;2022-12-16T00:36:47;21.88;;;11.60;;
29402;SDS011;16382;59.942;30.472;2022-12-16T00:39:15;20.48;;;11.10;;
29402;SDS011;16382;59.942;30.472;2022-12-16T00:41:43;25.50;;;12.57;;
29402;SDS011;16382;59.942;30.472;2022-12-16T00:44:13;21.65;;;11.65;;
29402;SDS011;16382;59.942;30.472;2022-12-16T00:46:40;19.05;;;11.63;;
29402;SDS011;16382;59.942;30.472;2022-12-16T00:49:08;28.60;;;13.57;;
29402;SDS011;16382;59.942;30.472;2022-12-16T00:51:36;24.05;;;12.45;;
29402;SDS011;16382;59.942;30.472;2022-12-16T00:54:03;24.38;;;12.70;;
29402;SDS011;16382;59.942;30.472;2022-12-16T00:56:31;21.88;;;12.60;;
29402;SDS011;16382;59.942;30.472;2022-12-16T00:59:01;26.42;;;13.93;;
29402;SDS011;16382;59.942;30.472;2022-12-16T01:01:30;23.85;;;13.40;;
29402;SDS011;16382;59.942;30.472;2022-12-16T01:03:58;27.58;;;13.07;;
29402;SDS011;16382;59.942;30.472;2022-12-16T01:06:25;23.73;;;12.70;;
29402;SDS011;16382;59.942;30.472;2022-12-16T01:08:53;23.85;;;12.57;;
29402;SDS011;16382;59.942;30.472;2022-12-16T01:11:20;22.67;;;12.88;;
29402;SDS011;16382;59.942;30.472;2022-12-16T01:13:49;27.13;;;13.27;;
29402;SDS011;16382;59.942;30.472;2022-12-16T01:16:17;22.50;;;12.63;;
29402;SDS011;16382;59.942;30.472;2022-12-16T01:18:46;21.40;;;11.75;;
29402;SDS011;16382;59.942;30.472;2022-12-16T01:21:14;22.23;;;12.00;;
29402;SDS011;16382;59.942;30.472;2022-12-16T01:23:41;22.13;;;12.13;;
29402;SDS011;16382;59.942;30.472;2022-12-16T01:26:11;28.77;;;13.88;;
29402;SDS011;16382;59.942;30.472;2022-12-16T01:28:42;24.65;;;13.88;;
29402;SDS011;16382;59.942;30.472;2022-12-16T01:31:10;23.52;;;12.85;;
29402;SDS011;16382;59.942;30.472;2022-12-16T01:33:41;25.63;;;13.02;;
29402;SDS011;16382;59.942;30.472;2022-12-16T01:36:10;22.95;;;12.02;;
29402;SDS011;16382;59.942;30.472;2022-12-16T01:38:40;29.00;;;13.55;;
29402;SDS011;16382;59.942;30.472;2022-12-16T01:41:09;44.78;;;13.57;;
29402;SDS011;16382;59.942;30.472;2022-12-16T01:43:40;33.47;;;15.15;;
29402;SDS011;16382;59.942;30.472;2022-12-16T01:46:12;32.83;;;15.45;;
29402;SDS011;16382;59.942;30.472;2022-12-16T01:48:46;34.92;;;17.15;;
29402;SDS011;16382;59.942;30.472;2022-12-16T01:51:20;35.13;;;15.40;;
29402;SDS011;16382;59.942;30.472;2022-12-16T01:53:53;36.58;;;16.50;;
29402;SDS011;16382;59.942;30.472;2022-12-16T01:56:26;54.13;;;17.13;;
29402;SDS011;16382;59.942;30.472;2022-12-16T01:58:57;31.10;;;15.80;;
29402;SDS011;16382;59.942;30.472;2022-12-16T02:01:26;32.75;;;15.55;;
29402;SDS011;16382;59.942;30.472;2022-12-16T02:03:54;32.50;;;17.27;;
29402;SDS011;16382;59.942;30.472;2022-12-16T02:06:27;31.42;;;15.10;;
29402;SDS011;16382;59.942;30.472;2022-12-16T02:08:56;28.25;;;15.45;;
29402;SDS011;16382;59.942;30.472;2022-12-16T02:11:31;30.98;;;15.57;;
29402;SDS011;16382;59.942;30.472;2022-12-16T02:14:35;32.85;;;16.38;;
29402;SDS011;16382;59.942;30.472;2022-12-16T02:17:23;30.83;;;15.82;;
29402;SDS011;16382;59.942;30.472;2022-12-16T02:20:19;28.80;;;15.57;;
29402;SDS011;16382;59.942;30.472;2022-12-16T02:23:30;30.92;;;14.43;;
29402;SDS011;16382;59.942;30.472;2022-12-16T02:26:28;24.88;;;13.73;;
29402;SDS011;16382;59.942;30.472;2022-12-16T02:30:02;27.17;;;14.32;;
29402;SDS011;16382;59.942;30.472;2022-12-16T02:32:51;25.35;;;14.20;;
29402;SDS011;16382;59.942;30.472;2022-12-16T02:35:29;29.70;;;15.25;;
29402;SDS011;16382;59.942;30.472;2022-12-16T02:38:06;28.52;;;14.20;;
29402;SDS011;16382;59.942;30.472;2022-12-16T02:40:47;30.98;;;16.02;;
29402;SDS011;16382;59.942;30.472;2022-12-16T02:43:24;30.67;;;15.15;;
29402;SDS011;16382;59.942;30.472;2022-12-16T02:46:07;26.27;;;14.43;;
29402;SDS011;16382;59.942;30.472;2022-12-16T02:48:36;27.50;;;14.60;;
29402;SDS011;16382;59.942;30.472;2022-12-16T02:51:04;29.30;;;14.95;;
29402;SDS011;16382;59.942;30.472;2022-12-16T02:53:33;32.67;;;16.58;;
29402;SDS011;16382;59.942;30.472;2022-12-16T02:56:05;26.65;;;14.32;;
29402;SDS011;16382;59.942;30.472;2022-12-16T02:58:45;31.15;;;15.52;;
29402;SDS011;16382;59.942;30.472;2022-12-16T03:01:19;27.65;;;14.68;;
29402;SDS011;16382;59.942;30.472;2022-12-16T03:03:59;26.95;;;14.15;;
29402;SDS011;16382;59.942;30.472;2022-12-16T03:06:32;28.48;;;13.40;;
29402;SDS011;16382;59.942;30.472;2022-12-16T03:09:04;27.50;;;14.70;;
29402;SDS011;16382;59.942;30.472;2022-12-16T03:11:35;26.98;;;14.80;;
29402;SDS011;16382;59.942;30.472;2022-12-16T03:14:07;28.38;;;15.07;;
29402;SDS011;16382;59.942;30.472;2022-12-16T03:16:40;32.85;;;15.80;;
29402;SDS011;16382;59.942;30.472;2022-12-16T03:19:10;29.95;;;14.88;;
29402;SDS011;16382;59.942;30.472;2022-12-16T03:21:41;30.40;;;16.55;;
29402;SDS011;16382;59.942;30.472;2022-12-16T03:24:17;31.20;;;15.45;;
29402;SDS011;16382;59.942;30.472;2022-12-16T03:26:46;29.55;;;14.77;;
29402;SDS011;16382;59.942;30.472;2022-12-16T03:29:23;32.03;;;16.38;;
29402;SDS011;16382;59.942;30.472;2022-12-16T03:32:01;29.95;;;15.20;;
29402;SDS011;16382;59.942;30.472;2022-12-16T03:34:38;29.80;;;16.17;;
29402;SDS011;16382;59.942;30.472;2022-12-16T03:37:11;36.45;;;16.15;;
29402;SDS011;16382;59.942;30.472;2022-12-16T03:39:40;28.65;;;15.80;;
29402;SDS011;16382;59.942;30.472;2022-12-16T03:42:12;26.77;;;15.30;;
29402;SDS011;16382;59.942;30.472;2022-12-16T03:44:41;29.08;;;15.30;;
29402;SDS011;16382;59.942;30.472;2022-12-16T03:47:10;33.17;;;16.00;;
29402;SDS011;16382;59.942;30.472;2022-12-16T03:49:40;25.65;;;15.70;;
29402;SDS011;16382;59.942;30.472;2022-12-16T03:52:07;28.92;;;15.57;;
29402;SDS011;16382;59.942;30.472;2022-12-16T03:54:35;29.10;;;15.57;;
29402;SDS011;16382;59.942;30.472;2022-12-16T03:57:02;32.55;;;15.13;;
29402;SDS011;16382;59.942;30.472;2022-12-16T03:59:30;31.67;;;16.15;;
29402;SDS011;16382;59.942;30.472;2022-12-16T04:01:57;29.73;;;15.20;;
29402;SDS011;16382;59.942;30.472;2022-12-16T04:04:25;37.92;;;16.88;;
29402;SDS011;16382;59.942;30.472;2022-12-16T04:06:55;37.13;;;17.77;;
29402;SDS011;16382;59.942;30.472;2022-12-16T04:09:36;40.20;;;18.27;;
29402;SDS011;16382;59.942;30.472;2022-12-16T04:12:04;33.88;;;17.52;;
29402;SDS011;16382;59.942;30.472;2022-12-16T04:14:49;32.35;;;16.60;;
29402;SDS011;16382;59.942;30.472;2022-12-16T04:17:34;34.45;;;15.88;;
29402;SDS011;16382;59.942;30.472;2022-12-16T04:20:19;32.15;;;16.27;;
29402;SDS011;16382;59.942;30.472;2022-12-16T04:23:22;36.30;;;16.67;;
29402;SDS011;16382;59.942;30.472;2022-12-16T04:26:10;37.70;;;17.30;;
29402;SDS011;16382;59.942;30.472;2022-12-16T04:28:37;37.88;;;16.88;;
29402;SDS011;16382;59.942;30.472;2022-12-16T04:31:07;42.22;;;19.00;;
29402;SDS011;16382;59.942;30.472;2022-12-16T04:33:35;37.53;;;19.05;;
29402;SDS011;16382;59.942;30.472;2022-12-16T04:36:21;42.38;;;20.50;;
29402;SDS011;16382;59.942;30.472;2022-12-16T04:39:08;42.13;;;18.33;;
29402;SDS011;16382;59.942;30.472;2022-12-16T04:41:54;37.70;;;18.60;;
29402;SDS011;16382;59.942;30.472;2022-12-16T04:44:39;47.08;;;19.60;;
29402;SDS011;16382;59.942;30.472;2022-12-16T04:47:24;39.70;;;19.77;;
29402;SDS011;16382;59.942;30.472;2022-12-16T04:50:09;43.15;;;19.48;;
29402;SDS011;16382;59.942;30.472;2022-12-16T04:52:54;49.92;;;20.00;;
29402;SDS011;16382;59.942;30.472;2022-12-16T04:55:41;45.28;;;19.90;;
29402;SDS011;16382;59.942;30.472;2022-12-16T04:58:26;37.00;;;17.63;;
29402;SDS011;16382;59.942;30.472;2022-12-16T05:01:15;42.55;;;19.50;;
29402;SDS011;16382;59.942;30.472;2022-12-16T05:04:00;35.90;;;17.33;;
29402;SDS011;16382;59.942;30.472;2022-12-16T05:06:45;36.72;;;16.63;;
29402;SDS011;16382;59.942;30.472;2022-12-16T05:09:31;34.13;;;16.38;;
29402;SDS011;16382;59.942;30.472;2022-12-16T05:12:18;37.97;;;17.80;;
29402;SDS011;16382;59.942;30.472;2022-12-16T05:15:04;38.97;;;18.00;;
29402;SDS011;16382;59.942;30.472;2022-12-16T05:17:51;36.47;;;17.58;;
29402;SDS011;16382;59.942;30.472;2022-12-16T05:20:36;37.20;;;16.92;;
29402;SDS011;16382;59.942;30.472;2022-12-16T05:23:17;36.17;;;17.65;;
29402;SDS011;16382;59.942;30.472;2022-12-16T05:26:02;41.15;;;18.15;;
29402;SDS011;16382;59.942;30.472;2022-12-16T05:28:49;42.25;;;17.45;;
29402;SDS011;16382;59.942;30.472;2022-12-16T05:31:37;40.17;;;17.00;;
29402;SDS011;16382;59.942;30.472;2022-12-16T05:34:22;36.10;;;18.48;;
29402;SDS011;16382;59.942;30.472;2022-12-16T05:37:07;39.65;;;18.70;;
29402;SDS011;16382;59.942;30.472;2022-12-16T05:39:52;36.92;;;17.15;;
29402;SDS011;16382;59.942;30.472;2022-12-16T05:42:38;45.00;;;18.15;;
29402;SDS011;16382;59.942;30.472;2022-12-16T05:45:24;40.72;;;19.75;;
29402;SDS011;16382;59.942;30.472;2022-12-16T05:48:09;39.47;;;19.27;;
29402;SDS011;16382;59.942;30.472;2022-12-16T05:50:54;39.65;;;18.25;;
29402;SDS011;16382;59.942;30.472;2022-12-16T05:53:40;37.78;;;17.48;;
29402;SDS011;16382;59.942;30.472;2022-12-16T05:56:26;34.53;;;17.92;;
29402;SDS011;16382;59.942;30.472;2022-12-16T05:59:11;35.33;;;15.52;;
29402;SDS011;16382;59.942;30.472;2022-12-16T06:01:57;37.47;;;17.45;;
29402;SDS011;16382;59.942;30.472;2022-12-16T06:04:41;35.85;;;16.45;;
29402;SDS011;16382;59.942;30.472;2022-12-16T06:07:25;38.45;;;16.50;;
29402;SDS011;16382;59.942;30.472;2022-12-16T06:10:10;35.60;;;17.80;;
29402;SDS011;16382;59.942;30.472;2022-12-16T06:12:56;42.85;;;18.67;;
29402;SDS011;16382;59.942;30.472;2022-12-16T06:15:40;37.20;;;17.40;;
29402;SDS011;16382;59.942;30.472;2022-12-16T06:18:27;37.00;;;17.75;;
29402;SDS011;16382;59.942;30.472;2022-12-16T06:21:12;41.40;;;19.17;;
29402;SDS011;16382;59.942;30.472;2022-12-16T06:23:56;35.15;;;16.33;;
29402;SDS011;16382;59.942;30.472;2022-12-16T06:26:42;39.05;;;18.00;;
29402;SDS011;16382;59.942;30.472;2022-12-16T06:29:27;29.42;;;15.77;;
29402;SDS011;16382;59.942;30.472;2022-12-16T06:32:12;37.90;;;16.60;;
29402;SDS011;16382;59.942;30.472;2022-12-16T06:35:00;38.92;;;16.60;;
29402;SDS011;16382;59.942;30.472;2022-12-16T06:37:56;34.45;;;15.05;;
29402;SDS011;16382;59.942;30.472;2022-12-16T06:41:06;35.00;;;15.88;;
29402;SDS011;16382;59.942;30.472;2022-12-16T06:44:05;42.85;;;19.02;;
29402;SDS011;16382;59.942;30.472;2022-12-16T06:47:11;48.45;;;19.10;;
29402;SDS011;16382;59.942;30.472;2022-12-16T06:50:03;50.90;;;22.27;;
29402;SDS011;16382;59.942;30.472;2022-12-16T06:52:53;48.03;;;21.13;;
29402;SDS011;16382;59.942;30.472;2022-12-16T06:55:46;50.35;;;21.88;;
29402;SDS011;16382;59.942;30.472;2022-12-16T06:58:31;46.13;;;22.35;;
29402;SDS011;16382;59.942;30.472;2022-12-16T07:01:16;56.38;;;22.17;;
29402;SDS011;16382;59.942;30.472;2022-12-16T07:04:01;57.78;;;24.00;;
29402;SDS011;16382;59.942;30.472;2022-12-16T07:06:48;68.72;;;25.58;;
29402;SDS011;16382;59.942;30.472;2022-12-16T07:09:33;49.35;;;18.63;;
29402;SDS011;16382;59.942;30.472;2022-12-16T07:12:28;41.20;;;17.20;;
29402;SDS011;16382;59.942;30.472;2022-12-16T07:15:13;51.50;;;19.42;;
29402;SDS011;16382;59.942;30.472;2022-12-16T07:17:57;43.85;;;17.08;;
29402;SDS011;16382;59.942;30.472;2022-12-16T07:20:42;38.05;;;17.33;;
29402;SDS011;16382;59.942;30.472;2022-12-16T07:23:29;41.03;;;17.55;;
29402;SDS011;16382;59.942;30.472;2022-12-16T07:26:14;50.65;;;21.75;;
29402;SDS011;16382;59.942;30.472;2022-12-16T07:28:58;50.05;;;21.52;;
29402;SDS011;16382;59.942;30.472;2022-12-16T07:31:43;40.58;;;18.65;;
29402;SDS011;16382;59.942;30.472;2022-12-16T07:34:28;45.40;;;18.42;;
29402;SDS011;16382;59.942;30.472;2022-12-16T07:37:13;37.88;;;17.67;;
29402;SDS011;16382;59.942;30.472;2022-12-16T07:40:00;35.88;;;16.83;;
29402;SDS011;16382;59.942;30.472;2022-12-16T07:42:45;39.55;;;18.08;;
29402;SDS011;16382;59.942;30.472;2022-12-16T07:45:31;42.97;;;19.25;;
29402;SDS011;16382;59.942;30.472;2022-12-16T07:48:16;50.92;;;20.17;;
29402;SDS011;16382;59.942;30.472;2022-12-16T07:51:01;40.65;;;20.38;;
29402;SDS011;16382;59.942;30.472;2022-12-16T07:53:46;47.47;;;21.58;;
29402;SDS011;16382;59.942;30.472;2022-12-16T07:56:32;47.85;;;20.33;;
29402;SDS011;16382;59.942;30.472;2022-12-16T07:59:18;43.28;;;20.67;;
29402;SDS011;16382;59.942;30.472;2022-12-16T08:02:03;49.33;;;18.83;;
29402;SDS011;16382;59.942;30.472;2022-12-16T08:04:48;41.83;;;18.95;;
29402;SDS011;16382;59.942;30.472;2022-12-16T08:07:32;42.15;;;18.65;;
29402;SDS011;16382;59.942;30.472;2022-12-16T08:10:21;40.90;;;18.58;;
29402;SDS011;16382;59.942;30.472;2022-12-16T08:13:07;37.50;;;17.55;;
29402;SDS011;16382;59.942;30.472;2022-12-16T08:15:52;39.13;;;18.00;;
29402;SDS011;16382;59.942;30.472;2022-12-16T08:18:37;43.75;;;18.20;;
29402;SDS011;16382;59.942;30.472;2022-12-16T08:21:23;42.72;;;17.98;;
29402;SDS011;16382;59.942;30.472;2022-12-16T08:24:08;35.40;;;18.65;;
29402;SDS011;16382;59.942;30.472;2022-12-16T08:26:53;37.22;;;18.08;;
29402;SDS011;16382;59.942;30.472;2022-12-16T08:29:40;37.40;;;17.90;;
29402;SDS011;16382;59.942;30.472;2022-12-16T08:32:37;35.75;;;17.83;;
29402;SDS011;16382;59.942;30.472;2022-12-16T08:35:32;36.88;;;18.17;;
29402;SDS011;16382;59.942;30.472;2022-12-16T08:38:18;39.63;;;17.40;;
29402;SDS011;16382;59.942;30.472;2022-12-16T08:41:04;46.92;;;19.50;;
29402;SDS011;16382;59.942;30.472;2022-12-16T08:43:49;38.83;;;18.33;;
29402;SDS011;16382;59.942;30.472;2022-12-16T08:46:35;48.15;;;20.13;;
29402;SDS011;16382;59.942;30.472;2022-12-16T08:49:20;38.70;;;19.27;;
29402;SDS011;16382;59.942;30.472;2022-12-16T08:52:06;45.80;;;20.67;;
29402;SDS011;16382;59.942;30.472;2022-12-16T08:55:00;39.80;;;18.23;;
29402;SDS011;16382;59.942;30.472;2022-12-16T08:57:51;43.92;;;19.55;;
29402;SDS011;16382;59.942;30.472;2022-12-16T09:00:37;43.63;;;21.15;;
29402;SDS011;16382;59.942;30.472;2022-12-16T09:03:23;47.53;;;19.88;;
29402;SDS011;16382;59.942;30.472;2022-12-16T09:06:08;45.63;;;20.50;;
29402;SDS011;16382;59.942;30.472;2022-12-16T09:08:53;50.30;;;21.30;;
29402;SDS011;16382;59.942;30.472;2022-12-16T09:11:39;45.50;;;19.17;;
29402;SDS011;16382;59.942;30.472;2022-12-16T09:14:24;41.75;;;18.50;;
29402;SDS011;16382;59.942;30.472;2022-12-16T09:17:09;49.13;;;21.38;;
29402;SDS011;16382;59.942;30.472;2022-12-16T09:19:56;49.25;;;19.92;;
29402;SDS011;16382;59.942;30.472;2022-12-16T09:22:41;49.70;;;21.08;;
29402;SDS011;16382;59.942;30.472;2022-12-16T09:25:26;47.90;;;21.42;;
29402;SDS011;16382;59.942;30.472;2022-12-16T09:28:11;40.30;;;19.27;;
29402;SDS011;16382;59.942;30.472;2022-12-16T09:30:56;45.45;;;19.35;;
29402;SDS011;16382;59.942;30.472;2022-12-16T09:33:42;48.50;;;20.05;;
29402;SDS011;16382;59.942;30.472;2022-12-16T09:36:29;47.53;;;19.20;;
29402;SDS011;16382;59.942;30.472;2022-12-16T09:39:14;38.65;;;16.75;;
29402;SDS011;16382;59.942;30.472;2022-12-16T09:42:00;44.40;;;18.88;;
29402;SDS011;16382;59.942;30.472;2022-12-16T09:44:55;44.00;;;16.35;;
29402;SDS011;16382;59.942;30.472;2022-12-16T09:47:51;48.58;;;18.60;;
29402;SDS011;16382;59.942;30.472;2022-12-16T09:50:42;43.60;;;18.45;;
29402;SDS011;16382;59.942;30.472;2022-12-16T09:53:31;47.78;;;18.52;;
29402;SDS011;16382;59.942;30.472;2022-12-16T09:56:21;55.05;;;22.08;;
29402;SDS011;16382;59.942;30.472;2022-12-16T09:59:12;59.25;;;22.45;;
29402;SDS011;16382;59.942;30.472;2022-12-16T10:02:02;43.05;;;17.75;;
29402;SDS011;16382;59.942;30.472;2022-12-16T10:04:55;43.85;;;17.45;;
29402;SDS011;16382;59.942;30.472;2022-12-16T10:07:41;47.42;;;18.17;;
29402;SDS011;16382;59.942;30.472;2022-12-16T10:10:40;48.33;;;20.80;;
29402;SDS011;16382;59.942;30.472;2022-12-16T10:13:34;43.55;;;18.70;;
29402;SDS011;16382;59.942;30.472;2022-12-16T10:16:26;56.25;;;21.30;;
29402;SDS011;16382;59.942;30.472;2022-12-16T10:22:14;46.53;;;19.50;;
29402;SDS011;16382;59.942;30.472;2022-12-16T10:25:06;53.30;;;21.60;;
29402;SDS011;16382;59.942;30.472;2022-12-16T10:28:01;54.88;;;21.75;;
29402;SDS011;16382;59.942;30.472;2022-12-16T10:30:59;44.28;;;18.10;;
29402;SDS011;16382;59.942;30.472;2022-12-16T10:33:48;56.67;;;20.70;;
29402;SDS011;16382;59.942;30.472;2022-12-16T10:36:34;47.28;;;20.20;;
29402;SDS011;16382;59.942;30.472;2022-12-16T10:39:23;62.47;;;23.20;;
29402;SDS011;16382;59.942;30.472;2022-12-16T10:42:16;62.83;;;23.60;;
29402;SDS011;16382;59.942;30.472;2022-12-16T10:45:12;52.50;;;20.75;;
29402;SDS011;16382;59.942;30.472;2022-12-16T10:48:04;64.22;;;25.25;;
29402;SDS011;16382;59.942;30.472;2022-12-16T10:50:51;74.38;;;28.30;;
29402;SDS011;16382;59.942;30.472;2022-12-16T10:53:36;81.88;;;30.13;;
29402;SDS011;16382;59.942;30.472;2022-12-16T10:56:26;49.80;;;17.85;;
29402;SDS011;16382;59.942;30.472;2022-12-16T10:59:34;61.75;;;23.75;;
29402;SDS011;16382;59.942;30.472;2022-12-16T11:02:24;64.82;;;23.33;;
29402;SDS011;16382;59.942;30.472;2022-12-16T11:05:21;56.10;;;21.17;;
29402;SDS011;16382;59.942;30.472;2022-12-16T11:08:24;47.80;;;17.77;;
29402;SDS011;16382;59.942;30.472;2022-12-16T11:11:19;54.90;;;22.55;;
29402;SDS011;16382;59.942;30.472;2022-12-16T11:14:13;55.97;;;19.17;;
29402;SDS011;16382;59.942;30.472;2022-12-16T11:17:14;73.82;;;24.85;;
29402;SDS011;16382;59.942;30.472;2022-12-16T11:20:12;71.88;;;25.17;;
29402;SDS011;16382;59.942;30.472;2022-12-16T11:23:08;62.05;;;22.27;;
29402;SDS011;16382;59.942;30.472;2022-12-16T11:26:06;61.92;;;21.40;;
29402;SDS011;16382;59.942;30.472;2022-12-16T11:29:01;73.28;;;23.55;;
29402;SDS011;16382;59.942;30.472;2022-12-16T11:31:57;70.10;;;23.70;;
29402;SDS011;16382;59.942;30.472;2022-12-16T11:34:49;71.88;;;25.85;;
29402;SDS011;16382;59.942;30.472;2022-12-16T11:37:39;64.13;;;22.33;;
29402;SDS011;16382;59.942;30.472;2022-12-16T11:40:25;73.45;;;25.02;;
29402;SDS011;16382;59.942;30.472;2022-12-16T11:43:12;72.85;;;23.52;;
29402;SDS011;16382;59.942;30.472;2022-12-16T11:46:00;62.70;;;23.52;;
29402;SDS011;16382;59.942;30.472;2022-12-16T11:48:53;69.70;;;24.42;;
29402;SDS011;16382;59.942;30.472;2022-12-16T11:51:42;70.88;;;25.33;;
29402;SDS011;16382;59.942;30.472;2022-12-16T11:54:39;47.42;;;17.75;;
29402;SDS011;16382;59.942;30.472;2022-12-16T11:57:37;59.88;;;23.15;;
29402;SDS011;16382;59.942;30.472;2022-12-16T12:00:28;52.30;;;19.42;;
29402;SDS011;16382;59.942;30.472;2022-12-16T12:03:15;52.70;;;20.00;;
29402;SDS011;16382;59.942;30.472;2022-12-16T12:06:07;55.80;;;20.75;;
29402;SDS011;16382;59.942;30.472;2022-12-16T12:09:04;53.63;;;20.90;;
29402;SDS011;16382;59.942;30.472;2022-12-16T12:12:01;52.53;;;20.88;;
29402;SDS011;16382;59.942;30.472;2022-12-16T12:15:00;49.08;;;19.63;;
29402;SDS011;16382;59.942;30.472;2022-12-16T12:17:57;50.88;;;17.48;;
29402;SDS011;16382;59.942;30.472;2022-12-16T12:20:49;49.20;;;19.80;;
29402;SDS011;16382;59.942;30.472;2022-12-16T12:23:45;50.15;;;19.95;;
29402;SDS011;16382;59.942;30.472;2022-12-16T12:26:40;62.47;;;25.30;;
29402;SDS011;16382;59.942;30.472;2022-12-16T12:29:35;64.32;;;23.13;;
29402;SDS011;16382;59.942;30.472;2022-12-16T12:32:39;47.65;;;21.80;;
29402;SDS011;16382;59.942;30.472;2022-12-16T12:35:37;59.92;;;22.27;;
29402;SDS011;16382;59.942;30.472;2022-12-16T12:38:36;62.95;;;23.33;;
29402;SDS011;16382;59.942;30.472;2022-12-16T12:41:36;61.42;;;22.35;;
29402;SDS011;16382;59.942;30.472;2022-12-16T12:44:50;49.78;;;20.45;;
29402;SDS011;16382;59.942;30.472;2022-12-16T12:48:01;46.70;;;18.65;;
29402;SDS011;16382;59.942;30.472;2022-12-16T12:50:55;46.80;;;18.15;;
29402;SDS011;16382;59.942;30.472;2022-12-16T12:53:49;41.15;;;16.20;;
29402;SDS011;16382;59.942;30.472;2022-12-16T12:56:44;43.80;;;16.77;;
29402;SDS011;16382;59.942;30.472;2022-12-16T12:59:38;48.47;;;19.92;;
29402;SDS011;16382;59.942;30.472;2022-12-16T13:02:35;52.72;;;20.75;;
29402;SDS011;16382;59.942;30.472;2022-12-16T13:05:32;53.20;;;18.23;;
29402;SDS011;16382;59.942;30.472;2022-12-16T13:08:40;43.65;;;18.25;;
29402;SDS011;16382;59.942;30.472;2022-12-16T13:11:33;44.85;;;18.45;;
29402;SDS011;16382;59.942;30.472;2022-12-16T13:24:39;38.42;;;16.77;;
29402;SDS011;16382;59.942;30.472;2022-12-16T13:27:44;35.30;;;16.95;;
29402;SDS011;16382;59.942;30.472;2022-12-16T13:30:38;44.38;;;18.80;;
29402;SDS011;16382;59.942;30.472;2022-12-16T13:33:26;38.30;;;17.05;;
29402;SDS011;16382;59.942;30.472;2022-12-16T13:36:12;41.13;;;17.65;;
29402;SDS011;16382;59.942;30.472;2022-12-16T13:39:03;40.58;;;18.85;;
29402;SDS011;16382;59.942;30.472;2022-12-16T13:42:25;36.88;;;17.60;;
29402;SDS011;16382;59.942;30.472;2022-12-16T13:45:33;40.35;;;17.85;;
29402;SDS011;16382;59.942;30.472;2022-12-16T13:48:27;37.13;;;18.17;;
29402;SDS011;16382;59.942;30.472;2022-12-16T13:54:40;39.00;;;16.15;;
29402;SDS011;16382;59.942;30.472;2022-12-16T13:57:31;38.15;;;16.60;;
29402;SDS011;16382;59.942;30.472;2022-12-16T14:00:24;34.45;;;16.70;;
29402;SDS011;16382;59.942;30.472;2022-12-16T14:03:14;34.38;;;15.98;;
29402;SDS011;16382;59.942;30.472;2022-12-16T14:06:08;38.13;;;16.10;;
29402;SDS011;16382;59.942;30.472;2022-12-16T14:09:01;39.90;;;17.65;;
29402;SDS011;16382;59.942;30.472;2022-12-16T14:11:49;46.35;;;18.20;;
29402;SDS011;16382;59.942;30.472;2022-12-16T14:14:41;45.17;;;19.92;;
29402;SDS011;16382;59.942;30.472;2022-12-16T14:17:31;45.85;;;19.40;;
29402;SDS011;16382;59.942;30.472;2022-12-16T14:20:26;38.08;;;17.58;;
29402;SDS011;16382;59.942;30.472;2022-12-16T14:23:22;37.08;;;17.42;;
29402;SDS011;16382;59.942;30.472;2022-12-16T14:26:14;37.92;;;16.88;;
29402;SDS011;16382;59.942;30.472;2022-12-16T14:29:14;38.15;;;17.02;;
29402;SDS011;16382;59.942;30.472;2022-12-16T14:32:19;35.65;;;15.80;;
29402;SDS011;16382;59.942;30.472;2022-12-16T14:35:13;40.95;;;17.25;;
29402;SDS011;16382;59.942;30.472;2022-12-16T14:38:19;38.30;;;17.00;;
29402;SDS011;16382;59.942;30.472;2022-12-16T14:41:10;36.17;;;16.13;;
29402;SDS011;16382;59.942;30.472;2022-12-16T14:43:57;42.33;;;18.55;;
29402;SDS011;16382;59.942;30.472;2022-12-16T14:46:42;38.30;;;17.85;;
29402;SDS011;16382;59.942;30.472;2022-12-16T14:49:33;31.05;;;14.20;;
29402;SDS011;16382;59.942;30.472;2022-12-16T14:52:19;37.60;;;16.35;;
29402;SDS011;16382;59.942;30.472;2022-12-16T14:55:14;30.75;;;13.00;;
29402;SDS011;16382;59.942;30.472;2022-12-16T14:58:07;32.08;;;14.07;;
29402;SDS011;16382;59.942;30.472;2022-12-16T15:00:55;33.15;;;13.93;;
29402;SDS011;16382;59.942;30.472;2022-12-16T15:03:44;29.95;;;14.05;;
29402;SDS011;16382;59.942;30.472;2022-12-16T15:06:31;29.85;;;14.98;;
29402;SDS011;16382;59.942;30.472;2022-12-16T15:09:20;37.90;;;14.45;;
29402;SDS011;16382;59.942;30.472;2022-12-16T15:12:12;42.05;;;15.82;;
29402;SDS011;16382;59.942;30.472;2022-12-16T15:15:02;41.65;;;16.05;;
29402;SDS011;16382;59.942;30.472;2022-12-16T15:17:52;37.85;;;15.63;;
29402;SDS011;16382;59.942;30.472;2022-12-16T15:20:42;37.80;;;16.40;;
29402;SDS011;16382;59.942;30.472;2022-12-16T15:23:34;41.53;;;15.90;;
29402;SDS011;16382;59.942;30.472;2022-12-16T15:26:25;35.95;;;15.50;;
29402;SDS011;16382;59.942;30.472;2022-12-16T15:29:27;40.05;;;15.73;;
29402;SDS011;16382;59.942;30.472;2022-12-16T15:32:30;37.65;;;13.95;;
29402;SDS011;16382;59.942;30.472;2022-12-16T15:35:28;37.75;;;15.18;;
29402;SDS011;16382;59.942;30.472;2022-12-16T15:38:17;40.53;;;16.15;;
29402;SDS011;16382;59.942;30.472;2022-12-16T15:41:19;44.60;;;16.02;;
29402;SDS011;16382;59.942;30.472;2022-12-16T15:44:14;38.40;;;16.45;;
29402;SDS011;16382;59.942;30.472;2022-12-16T15:47:01;43.97;;;15.75;;
29402;SDS011;16382;59.942;30.472;2022-12-16T15:49:47;41.55;;;17.70;;
29402;SDS011;16382;59.942;30.472;2022-12-16T15:52:37;39.65;;;14.90;;
29402;SDS011;16382;59.942;30.472;2022-12-16T15:55:26;40.08;;;18.35;;
29402;SDS011;16382;59.942;30.472;2022-12-16T15:58:17;46.15;;;17.38;;
29402;SDS011;16382;59.942;30.472;2022-12-16T16:01:06;43.22;;;16.33;;
29402;SDS011;16382;59.942;30.472;2022-12-16T16:03:54;42.30;;;16.20;;
29402;SDS011;16382;59.942;30.472;2022-12-16T16:06:40;40.80;;;17.67;;
29402;SDS011;16382;59.942;30.472;2022-12-16T16:09:31;45.45;;;17.20;;